sensor_id;sensor_type;location;lat;lon;timestamp;temperature;humidity
15638;DHT22;26604;53.596;10.042;2022-12-08T00:00:27;19.90;99.90
15638;DHT22;26604;53.596;10.042;2022-12-08T00:02:54;19.90;99.90
15638;DHT22;26604;53.596;10.042;2022-12-08T00:05:21;20.00;99.90
15638;DHT22;26604;53.596;10.042;2022-12-08T00:08:15;20.00;99.90
15638;DHT22;26604;53.596;10.042;2022-12-08T00:10:59;20.10;99.90
15638;DHT22;26604;53.596;10.042;2022-12-08T00:13:26;20.20;99.90
15638;DHT22;26604;53.596;10.042;2022-12-08T00:15:58;20.40;99.90
15638;DHT22;26604;53.596;10.042;2022-12-08T00:18:25;20.50;99.90
15638;DHT22;26604;53.596;10.042;2022-12-08T00:20:54;20.50;99.90
15638;DHT22;26604;53.596;10.042;2022-12-08T00:23:22;20.50;99.90
15638;DHT22;26604;53.596;10.042;2022-12-08T00:25:49;20.50;99.90
15638;DHT22;26604;53.596;10.042;2022-12-08T00:28:17;20.50;99.90
15638;DHT22;26604;53.596;10.042;2022-12-08T00:30:44;20.50;99.90
15638;DHT22;26604;53.596;10.042;2022-12-08T00:33:11;20.50;99.90
15638;DHT22;26604;53.596;10.042;2022-12-08T00:35:38;20.50;99.90
15638;DHT22;26604;53.596;10.042;2022-12-08T00:38:05;20.40;99.90
15638;DHT22;26604;53.596;10.042;2022-12-08T00:40:33;20.40;99.90
15638;DHT22;26604;53.596;10.042;2022-12-08T00:43:00;20.40;99.90
15638;DHT22;26604;53.596;10.042;2022-12-08T00:45:27;20.30;99.90
15638;DHT22;26604;53.596;10.042;2022-12-08T00:47:53;20.30;99.90
15638;DHT22;26604;53.596;10.042;2022-12-08T00:50:20;20.20;99.90
15638;DHT22;26604;53.596;10.042;2022-12-08T00:52:47;20.20;99.90
15638;DHT22;26604;53.596;10.042;2022-12-08T00:55:14;20.20;99.90
15638;DHT22;26604;53.596;10.042;2022-12-08T00:57:42;20.10;99.90
15638;DHT22;26604;53.596;10.042;2022-12-08T01:00:10;20.10;99.90
15638;DHT22;26604;53.596;10.042;2022-12-08T01:02:37;20.10;99.90
15638;DHT22;26604;53.596;10.042;2022-12-08T01:05:05;20.00;99.90
15638;DHT22;26604;53.596;10.042;2022-12-08T01:07:32;20.00;99.90
15638;DHT22;26604;53.596;10.042;2022-12-08T01:09:58;20.00;99.90
15638;DHT22;26604;53.596;10.042;2022-12-08T01:12:28;20.00;99.90
15638;DHT22;26604;53.596;10.042;2022-12-08T01:14:56;20.00;99.90
15638;DHT22;26604;53.596;10.042;2022-12-08T01:17:23;19.90;99.90
15638;DHT22;26604;53.596;10.042;2022-12-08T01:19:50;20.00;99.90
15638;DHT22;26604;53.596;10.042;2022-12-08T01:22:16;20.00;99.90
15638;DHT22;26604;53.596;10.042;2022-12-08T01:24:43;20.00;99.90
15638;DHT22;26604;53.596;10.042;2022-12-08T01:27:10;20.00;99.90
15638;DHT22;26604;53.596;10.042;2022-12-08T01:29:37;20.00;99.90
15638;DHT22;26604;53.596;10.042;2022-12-08T01:32:07;20.10;99.90
15638;DHT22;26604;53.596;10.042;2022-12-08T01:34:34;20.20;99.90
15638;DHT22;26604;53.596;10.042;2022-12-08T01:37:01;20.30;99.90
15638;DHT22;26604;53.596;10.042;2022-12-08T01:39:27;20.40;99.90
15638;DHT22;26604;53.596;10.042;2022-12-08T01:41:55;20.50;99.90
15638;DHT22;26604;53.596;10.042;2022-12-08T01:44:56;20.50;99.90
15638;DHT22;26604;53.596;10.042;2022-12-08T01:47:28;20.50;99.90
15638;DHT22;26604;53.596;10.042;2022-12-08T01:49:56;20.50;99.90
15638;DHT22;26604;53.596;10.042;2022-12-08T01:52:28;20.50;99.90
15638;DHT22;26604;53.596;10.042;2022-12-08T01:54:57;20.50;99.90
15638;DHT22;26604;53.596;10.042;2022-12-08T01:57:27;20.50;99.90
15638;DHT22;26604;53.596;10.042;2022-12-08T01:59:59;20.50;99.90
15638;DHT22;26604;53.596;10.042;2022-12-08T02:02:34;20.50;99.90
15638;DHT22;26604;53.596;10.042;2022-12-08T02:05:04;20.40;99.90
15638;DHT22;26604;53.596;10.042;2022-12-08T02:07:32;20.30;99.90
15638;DHT22;26604;53.596;10.042;2022-12-08T02:09:59;20.30;99.90
15638;DHT22;26604;53.596;10.042;2022-12-08T02:12:26;20.30;99.90
15638;DHT22;26604;53.596;10.042;2022-12-08T02:14:53;20.20;99.90
15638;DHT22;26604;53.596;10.042;2022-12-08T02:17:32;20.20;99.90
15638;DHT22;26604;53.596;10.042;2022-12-08T02:20:26;20.10;99.90
15638;DHT22;26604;53.596;10.042;2022-12-08T02:23:00;20.10;99.90
15638;DHT22;26604;53.596;10.042;2022-12-08T02:25:39;20.00;99.90
15638;DHT22;26604;53.596;10.042;2022-12-08T02:28:38;20.00;99.90
15638;DHT22;26604;53.596;10.042;2022-12-08T02:31:12;20.00;99.90
15638;DHT22;26604;53.596;10.042;2022-12-08T02:34:01;19.90;99.90
15638;DHT22;26604;53.596;10.042;2022-12-08T02:36:33;19.90;99.90
15638;DHT22;26604;53.596;10.042;2022-12-08T02:39:09;19.90;99.90
15638;DHT22;26604;53.596;10.042;2022-12-08T02:41:41;19.90;99.90
15638;DHT22;26604;53.596;10.042;2022-12-08T02:44:16;19.90;99.90
15638;DHT22;26604;53.596;10.042;2022-12-08T02:46:48;19.80;99.90
15638;DHT22;26604;53.596;10.042;2022-12-08T02:49:18;19.80;99.90
15638;DHT22;26604;53.596;10.042;2022-12-08T02:51:44;19.90;99.90
15638;DHT22;26604;53.596;10.042;2022-12-08T02:54:12;19.90;99.90
15638;DHT22;26604;53.596;10.042;2022-12-08T02:57:07;19.90;99.90
15638;DHT22;26604;53.596;10.042;2022-12-08T02:59:47;20.00;99.90
15638;DHT22;26604;53.596;10.042;2022-12-08T03:02:29;20.20;99.90
15638;DHT22;26604;53.596;10.042;2022-12-08T03:05:08;20.20;99.90
15638;DHT22;26604;53.596;10.042;2022-12-08T03:07:40;20.30;99.90
15638;DHT22;26604;53.596;10.042;2022-12-08T03:10:11;20.40;99.90
15638;DHT22;26604;53.596;10.042;2022-12-08T03:12:43;20.40;99.90
15638;DHT22;26604;53.596;10.042;2022-12-08T03:15:14;20.40;99.90
15638;DHT22;26604;53.596;10.042;2022-12-08T03:17:44;20.40;99.90
15638;DHT22;26604;53.596;10.042;2022-12-08T03:20:21;20.40;99.90
15638;DHT22;26604;53.596;10.042;2022-12-08T03:22:51;20.40;99.90
15638;DHT22;26604;53.596;10.042;2022-12-08T03:25:20;20.40;99.90
15638;DHT22;26604;53.596;10.042;2022-12-08T03:27:49;20.30;99.90
15638;DHT22;26604;53.596;10.042;2022-12-08T03:30:17;20.30;99.90
15638;DHT22;26604;53.596;10.042;2022-12-08T03:32:49;20.20;99.90
15638;DHT22;26604;53.596;10.042;2022-12-08T03:35:21;20.20;99.90
15638;DHT22;26604;53.596;10.042;2022-12-08T03:37:49;20.10;99.90
15638;DHT22;26604;53.596;10.042;2022-12-08T03:40:18;20.10;99.90
15638;DHT22;26604;53.596;10.042;2022-12-08T03:42:45;20.10;99.90
15638;DHT22;26604;53.596;10.042;2022-12-08T03:45:12;20.10;99.90
15638;DHT22;26604;53.596;10.042;2022-12-08T03:47:39;20.00;99.90
15638;DHT22;26604;53.596;10.042;2022-12-08T03:50:07;20.00;99.90
15638;DHT22;26604;53.596;10.042;2022-12-08T03:52:35;20.00;99.90
15638;DHT22;26604;53.596;10.042;2022-12-08T03:55:02;19.90;99.90
15638;DHT22;26604;53.596;10.042;2022-12-08T03:57:29;19.90;99.90
15638;DHT22;26604;53.596;10.042;2022-12-08T03:59:56;19.90;99.90
15638;DHT22;26604;53.596;10.042;2022-12-08T04:02:23;19.80;99.90
15638;DHT22;26604;53.596;10.042;2022-12-08T04:04:50;19.80;99.90
15638;DHT22;26604;53.596;10.042;2022-12-08T04:07:16;19.80;99.90
15638;DHT22;26604;53.596;10.042;2022-12-08T04:09:45;19.80;99.90
15638;DHT22;26604;53.596;10.042;2022-12-08T04:12:12;19.70;99.90
15638;DHT22;26604;53.596;10.042;2022-12-08T04:14:38;19.70;99.90
15638;DHT22;26604;53.596;10.042;2022-12-08T04:17:05;19.70;99.90
15638;DHT22;26604;53.596;10.042;2022-12-08T04:19:32;19.80;99.90
15638;DHT22;26604;53.596;10.042;2022-12-08T04:21:59;19.80;99.90
15638;DHT22;26604;53.596;10.042;2022-12-08T04:24:26;19.80;99.90
15638;DHT22;26604;53.596;10.042;2022-12-08T04:26:54;19.90;99.90
15638;DHT22;26604;53.596;10.042;2022-12-08T04:29:21;20.00;99.90
15638;DHT22;26604;53.596;10.042;2022-12-08T04:31:48;20.10;99.90
15638;DHT22;26604;53.596;10.042;2022-12-08T04:34:15;20.10;99.90
15638;DHT22;26604;53.596;10.042;2022-12-08T04:36:42;20.20;99.90
15638;DHT22;26604;53.596;10.042;2022-12-08T04:39:08;20.20;99.90
15638;DHT22;26604;53.596;10.042;2022-12-08T04:41:35;20.20;99.90
15638;DHT22;26604;53.596;10.042;2022-12-08T04:44:04;20.20;99.90
15638;DHT22;26604;53.596;10.042;2022-12-08T04:46:31;20.20;99.90
15638;DHT22;26604;53.596;10.042;2022-12-08T04:48:57;20.20;99.90
15638;DHT22;26604;53.596;10.042;2022-12-08T04:51:24;20.10;99.90
15638;DHT22;26604;53.596;10.042;2022-12-08T04:53:51;20.10;99.90
15638;DHT22;26604;53.596;10.042;2022-12-08T04:56:18;20.10;99.90
15638;DHT22;26604;53.596;10.042;2022-12-08T04:58:45;20.00;99.90
15638;DHT22;26604;53.596;10.042;2022-12-08T05:01:14;20.00;99.90
15638;DHT22;26604;53.596;10.042;2022-12-08T05:03:41;19.90;99.90
15638;DHT22;26604;53.596;10.042;2022-12-08T05:06:09;19.90;99.90
15638;DHT22;26604;53.596;10.042;2022-12-08T05:08:37;19.90;99.90
15638;DHT22;26604;53.596;10.042;2022-12-08T05:11:06;19.80;99.90
15638;DHT22;26604;53.596;10.042;2022-12-08T05:13:33;19.80;99.90
15638;DHT22;26604;53.596;10.042;2022-12-08T05:16:04;19.80;99.90
15638;DHT22;26604;53.596;10.042;2022-12-08T05:18:33;19.80;99.90
15638;DHT22;26604;53.596;10.042;2022-12-08T05:21:00;19.70;99.90
15638;DHT22;26604;53.596;10.042;2022-12-08T05:23:27;19.70;99.90
15638;DHT22;26604;53.596;10.042;2022-12-08T05:25:54;19.70;99.90
15638;DHT22;26604;53.596;10.042;2022-12-08T05:28:21;19.70;99.90
15638;DHT22;26604;53.596;10.042;2022-12-08T05:30:48;19.70;99.90
15638;DHT22;26604;53.596;10.042;2022-12-08T05:33:15;19.70;99.90
15638;DHT22;26604;53.596;10.042;2022-12-08T05:35:43;19.70;99.90
15638;DHT22;26604;53.596;10.042;2022-12-08T05:38:10;19.70;99.90
15638;DHT22;26604;53.596;10.042;2022-12-08T05:40:37;19.70;99.90
15638;DHT22;26604;53.596;10.042;2022-12-08T05:43:05;19.70;99.90
15638;DHT22;26604;53.596;10.042;2022-12-08T05:45:34;19.70;99.90
15638;DHT22;26604;53.596;10.042;2022-12-08T05:48:01;19.80;99.90
15638;DHT22;26604;53.596;10.042;2022-12-08T05:50:27;19.80;99.90
15638;DHT22;26604;53.596;10.042;2022-12-08T05:52:56;19.90;99.90
15638;DHT22;26604;53.596;10.042;2022-12-08T05:55:23;19.90;99.90
15638;DHT22;26604;53.596;10.042;2022-12-08T05:57:49;20.00;99.90
15638;DHT22;26604;53.596;10.042;2022-12-08T06:00:17;20.10;99.90
15638;DHT22;26604;53.596;10.042;2022-12-08T06:02:44;20.20;99.90
15638;DHT22;26604;53.596;10.042;2022-12-08T06:05:11;20.20;99.90
15638;DHT22;26604;53.596;10.042;2022-12-08T06:07:38;20.20;99.90
15638;DHT22;26604;53.596;10.042;2022-12-08T06:10:07;20.20;99.90
15638;DHT22;26604;53.596;10.042;2022-12-08T06:12:34;20.20;99.90
15638;DHT22;26604;53.596;10.042;2022-12-08T06:15:01;20.20;99.90
15638;DHT22;26604;53.596;10.042;2022-12-08T06:17:28;20.20;99.90
15638;DHT22;26604;53.596;10.042;2022-12-08T06:19:55;20.10;99.90
15638;DHT22;26604;53.596;10.042;2022-12-08T06:22:22;20.10;99.90
15638;DHT22;26604;53.596;10.042;2022-12-08T06:24:49;20.00;99.90
15638;DHT22;26604;53.596;10.042;2022-12-08T06:27:17;20.00;99.90
15638;DHT22;26604;53.596;10.042;2022-12-08T06:29:44;19.90;99.90
15638;DHT22;26604;53.596;10.042;2022-12-08T06:32:11;19.90;99.90
15638;DHT22;26604;53.596;10.042;2022-12-08T06:34:38;19.80;99.90
15638;DHT22;26604;53.596;10.042;2022-12-08T06:37:05;19.80;99.90
15638;DHT22;26604;53.596;10.042;2022-12-08T06:39:31;19.70;99.90
15638;DHT22;26604;53.596;10.042;2022-12-08T06:41:59;19.80;99.90
15638;DHT22;26604;53.596;10.042;2022-12-08T06:44:45;19.80;99.90
15638;DHT22;26604;53.596;10.042;2022-12-08T06:47:12;19.80;99.90
15638;DHT22;26604;53.596;10.042;2022-12-08T06:49:39;19.80;99.90
15638;DHT22;26604;53.596;10.042;2022-12-08T06:52:05;19.80;99.90
15638;DHT22;26604;53.596;10.042;2022-12-08T06:54:32;19.70;99.90
15638;DHT22;26604;53.596;10.042;2022-12-08T06:56:59;19.70;99.90
15638;DHT22;26604;53.596;10.042;2022-12-08T06:59:26;19.70;99.90
15638;DHT22;26604;53.596;10.042;2022-12-08T07:01:54;19.70;99.90
15638;DHT22;26604;53.596;10.042;2022-12-08T07:04:21;19.60;99.90
15638;DHT22;26604;53.596;10.042;2022-12-08T07:06:48;19.60;99.90
15638;DHT22;26604;53.596;10.042;2022-12-08T07:09:15;19.80;99.90
15638;DHT22;26604;53.596;10.042;2022-12-08T07:11:42;20.10;99.90
15638;DHT22;26604;53.596;10.042;2022-12-08T07:14:09;20.40;99.90
15638;DHT22;26604;53.596;10.042;2022-12-08T07:16:36;20.60;99.90
15638;DHT22;26604;53.596;10.042;2022-12-08T07:19:05;20.90;99.90
15638;DHT22;26604;53.596;10.042;2022-12-08T07:21:32;21.00;99.90
15638;DHT22;26604;53.596;10.042;2022-12-08T07:23:58;21.20;99.90
15638;DHT22;26604;53.596;10.042;2022-12-08T07:26:26;21.20;99.90
15638;DHT22;26604;53.596;10.042;2022-12-08T07:28:52;21.10;99.40
15638;DHT22;26604;53.596;10.042;2022-12-08T07:31:21;21.10;98.50
15638;DHT22;26604;53.596;10.042;2022-12-08T07:33:49;21.00;99.30
15638;DHT22;26604;53.596;10.042;2022-12-08T07:36:17;21.00;99.90
15638;DHT22;26604;53.596;10.042;2022-12-08T07:38:44;21.00;99.90
15638;DHT22;26604;53.596;10.042;2022-12-08T07:41:12;21.10;99.90
15638;DHT22;26604;53.596;10.042;2022-12-08T07:43:39;21.10;99.90
15638;DHT22;26604;53.596;10.042;2022-12-08T07:46:06;21.20;99.90
15638;DHT22;26604;53.596;10.042;2022-12-08T07:48:33;21.20;99.90
15638;DHT22;26604;53.596;10.042;2022-12-08T07:51:00;21.20;99.90
15638;DHT22;26604;53.596;10.042;2022-12-08T07:53:29;21.10;99.90
15638;DHT22;26604;53.596;10.042;2022-12-08T07:55:56;21.10;99.90
15638;DHT22;26604;53.596;10.042;2022-12-08T07:58:24;21.00;99.90
15638;DHT22;26604;53.596;10.042;2022-12-08T08:00:52;20.90;99.90
15638;DHT22;26604;53.596;10.042;2022-12-08T08:03:19;20.90;99.90
15638;DHT22;26604;53.596;10.042;2022-12-08T08:05:46;20.80;99.90
15638;DHT22;26604;53.596;10.042;2022-12-08T08:08:14;20.70;99.90
15638;DHT22;26604;53.596;10.042;2022-12-08T08:10:43;20.70;99.90
15638;DHT22;26604;53.596;10.042;2022-12-08T08:13:11;20.60;99.90
15638;DHT22;26604;53.596;10.042;2022-12-08T08:15:38;20.60;99.90
15638;DHT22;26604;53.596;10.042;2022-12-08T08:18:06;20.50;99.90
15638;DHT22;26604;53.596;10.042;2022-12-08T08:20:33;20.50;99.90
15638;DHT22;26604;53.596;10.042;2022-12-08T08:23:00;20.40;99.90
15638;DHT22;26604;53.596;10.042;2022-12-08T08:25:26;20.40;99.90
15638;DHT22;26604;53.596;10.042;2022-12-08T08:27:55;20.40;99.90
15638;DHT22;26604;53.596;10.042;2022-12-08T08:30:22;20.40;99.90
15638;DHT22;26604;53.596;10.042;2022-12-08T08:32:49;20.40;99.90
15638;DHT22;26604;53.596;10.042;2022-12-08T08:35:17;20.40;99.90
15638;DHT22;26604;53.596;10.042;2022-12-08T08:37:43;20.30;99.90
15638;DHT22;26604;53.596;10.042;2022-12-08T08:40:11;20.30;99.90
15638;DHT22;26604;53.596;10.042;2022-12-08T08:42:38;20.30;99.90
15638;DHT22;26604;53.596;10.042;2022-12-08T08:45:07;20.40;99.90
15638;DHT22;26604;53.596;10.042;2022-12-08T08:47:34;20.40;99.90
15638;DHT22;26604;53.596;10.042;2022-12-08T08:50:01;20.40;99.90
15638;DHT22;26604;53.596;10.042;2022-12-08T08:52:28;20.50;99.90
15638;DHT22;26604;53.596;10.042;2022-12-08T08:54:55;20.50;99.90
15638;DHT22;26604;53.596;10.042;2022-12-08T08:57:21;20.50;99.90
15638;DHT22;26604;53.596;10.042;2022-12-08T08:59:48;20.50;99.90
15638;DHT22;26604;53.596;10.042;2022-12-08T09:02:18;20.50;99.90
15638;DHT22;26604;53.596;10.042;2022-12-08T09:04:45;20.40;99.90
15638;DHT22;26604;53.596;10.042;2022-12-08T09:07:13;20.40;99.90
15638;DHT22;26604;53.596;10.042;2022-12-08T09:09:40;20.30;99.90
15638;DHT22;26604;53.596;10.042;2022-12-08T09:12:08;20.30;99.90
15638;DHT22;26604;53.596;10.042;2022-12-08T09:14:35;20.20;99.90
15638;DHT22;26604;53.596;10.042;2022-12-08T09:17:02;20.20;99.90
15638;DHT22;26604;53.596;10.042;2022-12-08T09:19:30;20.20;99.90
15638;DHT22;26604;53.596;10.042;2022-12-08T09:21:57;20.20;99.90
15638;DHT22;26604;53.596;10.042;2022-12-08T09:24:24;20.10;99.90
15638;DHT22;26604;53.596;10.042;2022-12-08T09:26:51;20.10;99.90
15638;DHT22;26604;53.596;10.042;2022-12-08T09:29:18;20.10;99.90
15638;DHT22;26604;53.596;10.042;2022-12-08T09:31:45;20.10;99.90
15638;DHT22;26604;53.596;10.042;2022-12-08T09:34:12;20.10;99.90
15638;DHT22;26604;53.596;10.042;2022-12-08T09:36:40;20.20;99.90
15638;DHT22;26604;53.596;10.042;2022-12-08T09:39:07;20.30;99.90
15638;DHT22;26604;53.596;10.042;2022-12-08T09:41:36;20.40;99.90
15638;DHT22;26604;53.596;10.042;2022-12-08T09:44:14;20.50;99.90
15638;DHT22;26604;53.596;10.042;2022-12-08T09:46:46;20.60;99.90
15638;DHT22;26604;53.596;10.042;2022-12-08T09:49:17;20.70;99.90
15638;DHT22;26604;53.596;10.042;2022-12-08T09:51:46;20.70;99.90
15638;DHT22;26604;53.596;10.042;2022-12-08T09:54:17;20.80;99.90
15638;DHT22;26604;53.596;10.042;2022-12-08T09:56:45;20.90;99.90
15638;DHT22;26604;53.596;10.042;2022-12-08T09:59:21;21.00;99.90
15638;DHT22;26604;53.596;10.042;2022-12-08T10:01:49;21.00;99.90
15638;DHT22;26604;53.596;10.042;2022-12-08T10:04:22;21.00;99.90
15638;DHT22;26604;53.596;10.042;2022-12-08T10:07:01;21.10;99.90
15638;DHT22;26604;53.596;10.042;2022-12-08T10:09:35;21.10;99.90
15638;DHT22;26604;53.596;10.042;2022-12-08T10:12:10;21.00;99.90
15638;DHT22;26604;53.596;10.042;2022-12-08T10:14:41;21.00;99.90
15638;DHT22;26604;53.596;10.042;2022-12-08T10:17:14;21.00;99.90
15638;DHT22;26604;53.596;10.042;2022-12-08T10:19:43;20.90;99.90
15638;DHT22;26604;53.596;10.042;2022-12-08T10:22:16;20.90;99.90
15638;DHT22;26604;53.596;10.042;2022-12-08T10:24:51;20.80;99.90
15638;DHT22;26604;53.596;10.042;2022-12-08T10:27:20;20.80;99.90
15638;DHT22;26604;53.596;10.042;2022-12-08T10:29:47;20.70;99.90
15638;DHT22;26604;53.596;10.042;2022-12-08T10:32:18;20.70;99.90
15638;DHT22;26604;53.596;10.042;2022-12-08T10:35:00;20.60;99.90
15638;DHT22;26604;53.596;10.042;2022-12-08T10:37:31;20.60;99.90
15638;DHT22;26604;53.596;10.042;2022-12-08T10:40:00;20.50;99.90
15638;DHT22;26604;53.596;10.042;2022-12-08T10:42:33;20.50;99.90
15638;DHT22;26604;53.596;10.042;2022-12-08T10:45:12;20.50;99.90
15638;DHT22;26604;53.596;10.042;2022-12-08T10:47:42;20.40;99.90
15638;DHT22;26604;53.596;10.042;2022-12-08T10:50:19;20.40;99.90
15638;DHT22;26604;53.596;10.042;2022-12-08T10:52:54;20.40;99.90
15638;DHT22;26604;53.596;10.042;2022-12-08T10:55:22;20.30;99.90
15638;DHT22;26604;53.596;10.042;2022-12-08T10:57:49;20.30;99.90
15638;DHT22;26604;53.596;10.042;2022-12-08T11:00:17;20.30;99.90
15638;DHT22;26604;53.596;10.042;2022-12-08T11:02:57;20.20;99.90
15638;DHT22;26604;53.596;10.042;2022-12-08T11:05:28;20.20;99.90
15638;DHT22;26604;53.596;10.042;2022-12-08T11:07:58;20.20;99.90
15638;DHT22;26604;53.596;10.042;2022-12-08T11:10:32;20.20;99.90
15638;DHT22;26604;53.596;10.042;2022-12-08T11:13:05;20.20;99.90
15638;DHT22;26604;53.596;10.042;2022-12-08T11:15:34;20.10;99.90
15638;DHT22;26604;53.596;10.042;2022-12-08T11:18:09;20.20;99.90
15638;DHT22;26604;53.596;10.042;2022-12-08T11:20:45;20.20;99.90
15638;DHT22;26604;53.596;10.042;2022-12-08T11:23:23;20.30;99.90
15638;DHT22;26604;53.596;10.042;2022-12-08T11:25:50;20.40;99.90
15638;DHT22;26604;53.596;10.042;2022-12-08T11:28:22;20.50;99.90
15638;DHT22;26604;53.596;10.042;2022-12-08T11:30:54;20.60;99.90
15638;DHT22;26604;53.596;10.042;2022-12-08T11:33:24;20.60;99.90
15638;DHT22;26604;53.596;10.042;2022-12-08T11:35:55;20.70;99.90
15638;DHT22;26604;53.596;10.042;2022-12-08T11:38:26;20.70;99.90
15638;DHT22;26604;53.596;10.042;2022-12-08T11:40:56;20.70;99.90
15638;DHT22;26604;53.596;10.042;2022-12-08T11:43:29;20.70;99.90
15638;DHT22;26604;53.596;10.042;2022-12-08T11:46:03;20.70;99.90
15638;DHT22;26604;53.596;10.042;2022-12-08T11:48:36;20.60;99.90
15638;DHT22;26604;53.596;10.042;2022-12-08T11:51:10;20.50;99.90
15638;DHT22;26604;53.596;10.042;2022-12-08T11:53:43;20.50;99.90
15638;DHT22;26604;53.596;10.042;2022-12-08T11:56:19;20.40;99.90
15638;DHT22;26604;53.596;10.042;2022-12-08T11:58:50;20.40;99.90
15638;DHT22;26604;53.596;10.042;2022-12-08T12:01:20;20.30;99.90
15638;DHT22;26604;53.596;10.042;2022-12-08T12:03:53;20.30;99.90
15638;DHT22;26604;53.596;10.042;2022-12-08T12:06:49;20.20;99.90
15638;DHT22;26604;53.596;10.042;2022-12-08T12:09:25;20.20;99.90
15638;DHT22;26604;53.596;10.042;2022-12-08T12:12:03;20.20;99.90
15638;DHT22;26604;53.596;10.042;2022-12-08T12:17:53;20.10;99.90
15638;DHT22;26604;53.596;10.042;2022-12-08T12:20:25;20.00;99.90
15638;DHT22;26604;53.596;10.042;2022-12-08T12:22:58;20.00;99.90
15638;DHT22;26604;53.596;10.042;2022-12-08T12:25:28;20.00;99.90
15638;DHT22;26604;53.596;10.042;2022-12-08T12:27:58;20.00;99.90
15638;DHT22;26604;53.596;10.042;2022-12-08T12:30:30;20.00;99.90
15638;DHT22;26604;53.596;10.042;2022-12-08T12:33:01;20.00;99.90
15638;DHT22;26604;53.596;10.042;2022-12-08T12:35:33;20.00;99.90
15638;DHT22;26604;53.596;10.042;2022-12-08T12:38:03;20.00;99.90
15638;DHT22;26604;53.596;10.042;2022-12-08T12:40:59;20.00;99.90
15638;DHT22;26604;53.596;10.042;2022-12-08T12:43:29;20.00;99.90
15638;DHT22;26604;53.596;10.042;2022-12-08T12:52:06;20.10;99.90
15638;DHT22;26604;53.596;10.042;2022-12-08T12:58:22;20.20;99.90
15638;DHT22;26604;53.596;10.042;2022-12-08T13:04:04;20.40;99.90
15638;DHT22;26604;53.596;10.042;2022-12-08T13:06:34;20.40;99.90
15638;DHT22;26604;53.596;10.042;2022-12-08T13:09:02;20.40;99.90
15638;DHT22;26604;53.596;10.042;2022-12-08T13:11:44;20.40;99.90
15638;DHT22;26604;53.596;10.042;2022-12-08T13:14:26;20.40;99.90
15638;DHT22;26604;53.596;10.042;2022-12-08T13:16:55;20.40;99.90
15638;DHT22;26604;53.596;10.042;2022-12-08T13:19:23;20.40;99.90
15638;DHT22;26604;53.596;10.042;2022-12-08T13:21:50;20.30;99.90
15638;DHT22;26604;53.596;10.042;2022-12-08T13:24:29;20.30;99.90
15638;DHT22;26604;53.596;10.042;2022-12-08T13:27:32;20.20;99.90
15638;DHT22;26604;53.596;10.042;2022-12-08T13:30:41;20.20;99.90
15638;DHT22;26604;53.596;10.042;2022-12-08T13:33:16;20.20;99.90
15638;DHT22;26604;53.596;10.042;2022-12-08T13:35:50;20.10;99.90
15638;DHT22;26604;53.596;10.042;2022-12-08T13:38:20;20.10;99.90
15638;DHT22;26604;53.596;10.042;2022-12-08T13:40:48;20.00;99.90
15638;DHT22;26604;53.596;10.042;2022-12-08T13:43:20;20.00;99.90
15638;DHT22;26604;53.596;10.042;2022-12-08T13:45:51;19.90;99.90
15638;DHT22;26604;53.596;10.042;2022-12-08T13:48:24;19.90;99.90
15638;DHT22;26604;53.596;10.042;2022-12-08T13:50:55;19.90;99.90
15638;DHT22;26604;53.596;10.042;2022-12-08T13:53:26;19.90;99.90
15638;DHT22;26604;53.596;10.042;2022-12-08T13:55:55;19.80;99.90
15638;DHT22;26604;53.596;10.042;2022-12-08T13:58:25;19.80;99.90
15638;DHT22;26604;53.596;10.042;2022-12-08T14:01:02;19.80;99.90
15638;DHT22;26604;53.596;10.042;2022-12-08T14:03:33;19.80;99.90
15638;DHT22;26604;53.596;10.042;2022-12-08T14:06:04;19.80;99.90
15638;DHT22;26604;53.596;10.042;2022-12-08T14:08:33;19.80;99.90
15638;DHT22;26604;53.596;10.042;2022-12-08T14:11:02;19.90;99.90
15638;DHT22;26604;53.596;10.042;2022-12-08T14:13:31;19.90;99.90
15638;DHT22;26604;53.596;10.042;2022-12-08T14:16:00;19.90;99.90
15638;DHT22;26604;53.596;10.042;2022-12-08T14:18:30;20.10;99.90
15638;DHT22;26604;53.596;10.042;2022-12-08T14:21:02;20.10;99.90
15638;DHT22;26604;53.596;10.042;2022-12-08T14:23:30;20.20;99.90
15638;DHT22;26604;53.596;10.042;2022-12-08T14:26:00;20.20;99.90
15638;DHT22;26604;53.596;10.042;2022-12-08T14:28:27;20.30;99.90
15638;DHT22;26604;53.596;10.042;2022-12-08T14:30:54;20.30;99.90
15638;DHT22;26604;53.596;10.042;2022-12-08T14:33:23;20.30;99.90
15638;DHT22;26604;53.596;10.042;2022-12-08T14:35:53;20.30;99.90
15638;DHT22;26604;53.596;10.042;2022-12-08T14:38:22;20.30;99.90
15638;DHT22;26604;53.596;10.042;2022-12-08T14:40:59;20.20;99.90
15638;DHT22;26604;53.596;10.042;2022-12-08T14:43:28;20.30;99.90
15638;DHT22;26604;53.596;10.042;2022-12-08T14:45:57;20.20;99.90
15638;DHT22;26604;53.596;10.042;2022-12-08T14:48:40;20.20;99.90
15638;DHT22;26604;53.596;10.042;2022-12-08T14:51:14;20.20;99.90
15638;DHT22;26604;53.596;10.042;2022-12-08T14:53:44;20.20;99.90
15638;DHT22;26604;53.596;10.042;2022-12-08T14:56:19;20.10;99.90
15638;DHT22;26604;53.596;10.042;2022-12-08T14:58:48;20.10;99.90
15638;DHT22;26604;53.596;10.042;2022-12-08T15:01:20;20.00;99.90
15638;DHT22;26604;53.596;10.042;2022-12-08T15:03:49;20.00;99.90
15638;DHT22;26604;53.596;10.042;2022-12-08T15:06:19;19.90;99.90
15638;DHT22;26604;53.596;10.042;2022-12-08T15:08:51;19.90;99.90
15638;DHT22;26604;53.596;10.042;2022-12-08T15:11:29;19.90;99.90
15638;DHT22;26604;53.596;10.042;2022-12-08T15:13:57;19.90;99.90
15638;DHT22;26604;53.596;10.042;2022-12-08T15:16:27;19.80;99.90
15638;DHT22;26604;53.596;10.042;2022-12-08T15:19:04;19.80;99.90
15638;DHT22;26604;53.596;10.042;2022-12-08T15:21:38;19.80;99.90
15638;DHT22;26604;53.596;10.042;2022-12-08T15:24:08;19.80;99.90
15638;DHT22;26604;53.596;10.042;2022-12-08T15:26:39;19.80;99.90
15638;DHT22;26604;53.596;10.042;2022-12-08T15:29:12;19.80;99.90
15638;DHT22;26604;53.596;10.042;2022-12-08T15:31:39;19.80;99.90
15638;DHT22;26604;53.596;10.042;2022-12-08T15:34:07;19.90;99.90
15638;DHT22;26604;53.596;10.042;2022-12-08T15:36:34;20.00;99.90
15638;DHT22;26604;53.596;10.042;2022-12-08T15:39:03;20.10;99.90
15638;DHT22;26604;53.596;10.042;2022-12-08T15:41:31;20.20;99.90
15638;DHT22;26604;53.596;10.042;2022-12-08T15:43:58;20.30;99.90
15638;DHT22;26604;53.596;10.042;2022-12-08T15:46:24;20.40;99.90
15638;DHT22;26604;53.596;10.042;2022-12-08T15:48:51;20.50;99.90